createdAt,value
2023-03-21T00:02:01.520Z,101094.13
2023-03-21T00:04:44.501Z,101094.94
2023-03-21T00:07:21.080Z,101083.63
2023-03-21T00:09:52.425Z,101084.44
2023-03-21T00:12:21.893Z,101082.50
2023-03-21T00:14:54.225Z,101088.00
2023-03-21T00:17:25.517Z,101084.97
2023-03-21T00:19:55.328Z,101083.81
2023-03-21T00:22:26.465Z,101079.66
2023-03-21T00:24:55.908Z,101083.53
2023-03-21T00:27:50.106Z,101078.56
2023-03-21T00:30:16.792Z,101070.50
2023-03-21T00:32:55.382Z,101068.06
2023-03-21T00:35:57.539Z,101068.06
2023-03-21T00:38:16.649Z,101073.56
2023-03-21T00:40:49.209Z,101071.09
2023-03-21T00:43:23.555Z,101066.69
2023-03-21T00:45:51.881Z,101062.56
2023-03-21T00:48:19.795Z,101056.25
2023-03-21T00:50:48.290Z,101056.53
2023-03-21T00:53:16.648Z,101062.84
2023-03-21T00:55:45.360Z,101059.81
2023-03-21T00:58:13.146Z,101066.16
2023-03-21T01:00:41.620Z,101059.28
2023-03-21T01:03:24.545Z,101061.50
2023-03-21T01:06:05.766Z,101062.09
2023-03-21T01:08:52.224Z,101064.84
2023-03-21T01:11:28.827Z,101062.91
2023-03-21T01:14:14.819Z,101065.13
2023-03-21T01:16:49.759Z,101064.00
2023-03-21T01:19:29.178Z,101059.63
2023-03-21T01:22:03.369Z,101052.75
2023-03-21T01:24:35.573Z,101052.50
2023-03-21T01:27:05.053Z,101057.47
2023-03-21T01:29:33.313Z,101050.81
2023-03-21T01:32:01.828Z,101050.81
2023-03-21T01:34:30.302Z,101052.75
2023-03-21T01:36:58.750Z,101055.78
2023-03-21T01:39:27.955Z,101053.31
2023-03-21T01:41:55.205Z,101051.63
2023-03-21T01:44:23.661Z,101050.09
2023-03-21T01:47:09.847Z,101045.66
2023-03-21T01:49:49.834Z,101045.16
2023-03-21T01:52:39.699Z,101047.16
2023-03-21T01:55:16.236Z,101042.44
2023-03-21T01:58:05.248Z,101052.97
2023-03-21T02:00:38.452Z,101052.22
2023-03-21T02:03:26.324Z,101051.16
2023-03-21T02:06:19.237Z,101047.91
2023-03-21T02:08:48.823Z,101047.63
2023-03-21T02:11:19.300Z,101039.34
2023-03-21T02:13:50.201Z,101038.00
2023-03-21T02:17:12.745Z,101036.13
2023-03-21T02:20:22.106Z,101040.50
2023-03-21T02:23:43.347Z,101053.50
2023-03-21T02:27:06.701Z,101046.66
2023-03-21T02:30:42.644Z,101035.94
2023-03-21T02:33:39.940Z,101039.25
2023-03-21T02:36:52.157Z,101035.34
2023-03-21T02:39:38.734Z,101037.03
2023-03-21T02:43:01.008Z,101040.06
2023-03-21T02:46:03.912Z,101041.78
2023-03-21T02:48:52.363Z,101034.91
2023-03-21T02:51:30.401Z,101031.34
2023-03-21T02:54:32.337Z,101036.59
2023-03-21T02:57:09.702Z,101041.84
2023-03-21T02:59:53.271Z,101037.69
2023-03-21T03:02:30.948Z,101044.00
2023-03-21T03:05:02.874Z,101043.72
2023-03-21T03:08:11.740Z,101038.81
2023-03-21T03:11:07.743Z,101046.75
2023-03-21T03:13:58.160Z,101042.88
2023-03-21T03:16:37.032Z,101028.63
2023-03-21T03:19:36.659Z,101033.06
2023-03-21T03:23:07.071Z,101031.19
2023-03-21T03:26:12.937Z,101046.91
2023-03-21T03:28:53.729Z,101048.00
2023-03-21T03:31:47.501Z,101035.03
2023-03-21T03:34:26.792Z,101037.78
2023-03-21T03:37:04.597Z,101045.22
2023-03-21T03:39:51.467Z,101046.91
2023-03-21T03:42:58.886Z,101043.59
2023-03-21T03:45:50.069Z,101043.88
2023-03-21T03:48:35.195Z,101036.16
2023-03-21T03:51:23.994Z,101039.97
2023-03-21T03:54:08.989Z,101049.13
2023-03-21T03:56:40.772Z,101048.59
2023-03-21T03:59:11.329Z,101042.53
2023-03-21T04:01:41.617Z,101038.69
2023-03-21T04:04:13.867Z,101039.53
2023-03-21T04:06:51.716Z,101046.97
2023-03-21T04:09:34.066Z,101037.56
2023-03-21T04:12:17.280Z,101049.44
2023-03-21T04:14:47.613Z,101032.91
2023-03-21T04:17:19.380Z,101040.34
2023-03-21T04:19:53.802Z,101032.94
2023-03-21T04:22:28.238Z,101042.03
2023-03-21T04:25:00.505Z,101040.94
2023-03-21T04:27:30.486Z,101045.09
2023-03-21T04:29:58.366Z,101032.41
2023-03-21T04:32:28.186Z,101034.88
2023-03-21T04:34:58.352Z,101046.44
2023-03-21T04:37:28.406Z,101036.50
2023-03-21T04:39:58.441Z,101037.03
2023-03-21T04:42:28.569Z,101038.44
2023-03-21T04:44:58.681Z,101036.22
2023-03-21T04:47:29.287Z,101039.81
2023-03-21T04:49:59.516Z,101043.16
2023-03-21T04:52:29.625Z,101030.47
2023-03-21T04:54:59.804Z,101044.25
2023-03-21T04:57:29.953Z,101040.94
2023-03-21T05:00:00.017Z,101038.78
2023-03-21T05:02:30.094Z,101036.84
2023-03-21T05:05:00.180Z,101037.97
2023-03-21T05:07:31.392Z,101034.38
2023-03-21T05:10:02.692Z,101040.72
2023-03-21T05:12:33.173Z,101033.00
2023-03-21T05:15:05.592Z,101035.16
2023-03-21T05:17:35.697Z,101036.81
2023-03-21T05:20:09.380Z,101032.13
2023-03-21T05:22:40.993Z,101043.41
2023-03-21T05:25:12.447Z,101035.44
2023-03-21T05:27:45.401Z,101035.97
2023-03-21T05:30:18.578Z,101040.94
2023-03-21T05:32:48.641Z,101042.28
2023-03-21T05:35:18.803Z,101038.16
2023-03-21T05:37:48.882Z,101039.56
2023-03-21T05:40:19.833Z,101044.25
2023-03-21T05:42:50.001Z,101038.97
2023-03-21T05:45:20.668Z,101036.22
2023-03-21T05:47:50.804Z,101043.69
2023-03-21T05:50:21.030Z,101040.94
2023-03-21T05:52:51.224Z,101039.25
2023-03-21T05:55:21.288Z,101044.47
2023-03-21T05:57:51.354Z,101039.16
2023-03-21T06:00:24.363Z,101047.38
2023-03-21T06:02:54.965Z,101043.19
2023-03-21T06:05:25.495Z,101042.06
2023-03-21T06:07:55.631Z,101043.19
2023-03-21T06:10:25.706Z,101042.06
2023-03-21T06:12:55.898Z,101041.22
2023-03-21T06:15:26.858Z,101047.28
2023-03-21T06:17:56.966Z,101058.91
2023-03-21T06:20:27.082Z,101055.63
2023-03-21T06:22:57.224Z,101050.88
2023-03-21T06:25:27.807Z,101058.28
2023-03-21T06:27:57.917Z,101052.69
2023-03-21T06:30:27.965Z,101053.19
2023-03-21T06:32:58.009Z,101057.50
2023-03-21T06:35:28.086Z,101052.41
2023-03-21T06:37:59.125Z,101054.38
2023-03-21T06:40:29.160Z,101053.56
2023-03-21T06:42:59.225Z,101056.22
2023-03-21T06:45:29.296Z,101058.81
2023-03-21T06:47:59.380Z,101061.50
2023-03-21T06:50:29.579Z,101057.97
2023-03-21T06:52:59.931Z,101057.41
2023-03-21T06:55:30.305Z,101062.75
2023-03-21T06:58:00.390Z,101062.75
2023-03-21T07:00:30.819Z,101063.34
2023-03-21T07:03:01.896Z,101070.78
2023-03-21T07:05:32.063Z,101065.69
2023-03-21T07:08:02.825Z,101070.22
2023-03-21T07:10:33.138Z,101067.69
2023-03-21T07:13:03.277Z,101067.97
2023-03-21T07:15:33.370Z,101063.91
2023-03-21T07:18:03.069Z,101062.81
2023-03-21T07:20:31.674Z,101068.97
2023-03-21T07:23:00.969Z,101070.56
2023-03-21T07:25:30.941Z,101065.84
2023-03-21T07:27:59.227Z,101058.34
2023-03-21T07:30:28.118Z,101066.09
2023-03-21T07:32:55.999Z,101064.75
2023-03-21T07:35:24.494Z,101069.97
2023-03-21T07:37:52.927Z,101067.50
2023-03-21T07:40:21.510Z,101064.41
2023-03-21T07:42:53.320Z,101065.03
2023-03-21T07:45:25.502Z,101065.72
2023-03-21T07:47:55.650Z,101068.50
2023-03-21T07:50:25.822Z,101069.28
2023-03-21T07:52:56.220Z,101068.69
2023-03-21T07:55:26.360Z,101068.09
2023-03-21T07:57:56.524Z,101067.28
2023-03-21T08:00:27.089Z,101069.47
2023-03-21T08:02:59.721Z,101072.53
2023-03-21T08:05:40.844Z,101063.91
2023-03-21T08:08:11.332Z,101068.31
2023-03-21T08:10:39.896Z,101054.38
2023-03-21T08:13:08.062Z,101058.66
2023-03-21T08:15:37.698Z,101058.78
2023-03-21T08:18:08.942Z,101061.59
2023-03-21T08:20:36.627Z,101065.38
2023-03-21T08:23:05.173Z,101064.91
2023-03-21T08:25:33.351Z,101061.34
2023-03-21T08:28:01.613Z,101070.69
2023-03-21T08:30:30.218Z,101065.53
2023-03-21T08:33:01.552Z,101068.88
2023-03-21T08:35:32.213Z,101071.22
2023-03-21T08:38:07.366Z,101067.44
2023-03-21T08:40:37.574Z,101066.88
2023-03-21T08:43:07.852Z,101067.25
2023-03-21T08:45:38.249Z,101072.25
2023-03-21T08:48:08.533Z,101069.53
2023-03-21T08:50:38.747Z,101068.25
2023-03-21T08:53:08.830Z,101069.28
2023-03-21T08:55:39.775Z,101067.59
2023-03-21T08:58:09.963Z,101066.44
2023-03-21T09:00:40.019Z,101071.91
2023-03-21T09:03:11.731Z,101068.66
2023-03-21T09:05:41.921Z,101063.13
2023-03-21T09:08:13.262Z,101071.63
2023-03-21T09:10:43.391Z,101067.19
2023-03-21T09:13:13.424Z,101064.72
2023-03-21T09:15:43.508Z,101063.81
2023-03-21T09:18:15.142Z,101068.84
2023-03-21T09:20:47.433Z,101066.06
2023-03-21T09:23:18.353Z,101065.56
2023-03-21T09:25:48.559Z,101067.19
2023-03-21T09:28:18.712Z,101065.94
2023-03-21T09:30:48.907Z,101066.16
2023-03-21T09:33:25.778Z,101066.63
2023-03-21T09:35:58.551Z,101059.41
2023-03-21T09:38:30.670Z,101062.34
2023-03-21T09:41:32.700Z,101059.06
2023-03-21T09:44:39.582Z,101055.47
2023-03-21T09:47:37.787Z,101055.44
2023-03-21T09:50:31.717Z,101056.97
2023-03-21T09:53:23.844Z,101056.97
2023-03-21T09:55:56.478Z,101052.97
2023-03-21T09:58:53.255Z,101058.13
2023-03-21T10:01:41.828Z,101064.88
2023-03-21T10:04:19.031Z,101047.97
2023-03-21T10:07:02.248Z,101051.25
2023-03-21T10:09:34.843Z,101051.94
2023-03-21T10:12:22.034Z,101056.72
2023-03-21T10:15:00.919Z,101044.47
2023-03-21T10:17:46.580Z,101038.66
2023-03-21T10:20:32.153Z,101037.88
2023-03-21T10:23:12.856Z,101033.03
2023-03-21T10:26:02.212Z,101032.34
2023-03-21T10:28:52.481Z,101036.56
2023-03-21T10:31:29.992Z,101039.72
2023-03-21T10:34:31.276Z,101035.06
2023-03-21T10:37:05.529Z,101022.69
2023-03-21T10:39:50.364Z,101021.78
2023-03-21T10:42:35.634Z,101025.38
2023-03-21T10:45:20.182Z,101030.69
2023-03-21T10:47:52.634Z,101025.88
2023-03-21T10:50:25.709Z,101014.75
2023-03-21T10:53:00.923Z,101020.53
2023-03-21T10:55:42.418Z,101011.25
2023-03-21T10:58:27.439Z,101015.53
2023-03-21T11:01:07.645Z,101021.06
2023-03-21T11:03:43.780Z,101004.72
2023-03-21T11:06:22.380Z,101012.16
2023-03-21T11:09:23.236Z,100999.22
2023-03-21T11:12:17.810Z,101003.84
2023-03-21T11:14:51.247Z,100999.03
2023-03-21T11:17:28.419Z,100999.72
2023-03-21T11:20:09.095Z,100996.50
2023-03-21T11:22:46.491Z,100998.19
2023-03-21T11:25:39.201Z,100992.06
2023-03-21T11:28:21.180Z,100992.72
2023-03-21T11:30:59.708Z,100988.81
2023-03-21T11:33:47.768Z,100982.75
2023-03-21T11:36:20.923Z,100980.47
2023-03-21T11:39:28.467Z,100982.81
2023-03-21T11:41:58.736Z,100979.34
2023-03-21T11:44:44.584Z,100985.72
2023-03-21T11:47:14.728Z,100979.84
2023-03-21T11:49:44.838Z,100980.97
2023-03-21T11:52:43.740Z,100972.97
2023-03-21T11:55:57.875Z,100966.25
2023-03-21T11:59:18.318Z,100959.56
2023-03-21T12:02:12.492Z,100948.53
2023-03-21T12:05:21.736Z,100956.38
2023-03-21T12:08:21.481Z,100946.56
2023-03-21T12:11:01.426Z,100942.59
2023-03-21T12:14:09.996Z,100943.78
2023-03-21T12:17:25.099Z,100941.50
2023-03-21T12:21:07.448Z,100945.53
2023-03-21T12:24:38.497Z,100943.78
2023-03-21T12:28:16.919Z,100934.91
2023-03-21T12:31:32.169Z,100932.31
2023-03-21T12:34:50.685Z,100929.59
2023-03-21T12:37:58.027Z,100923.47
2023-03-21T12:40:40.955Z,100919.84
2023-03-21T12:43:33.757Z,100920.53
2023-03-21T12:46:20.820Z,100910.34
2023-03-21T12:49:09.982Z,100910.09
2023-03-21T12:51:51.215Z,100910.19
2023-03-21T12:54:41.840Z,100912.81
2023-03-21T12:57:40.137Z,100902.91
2023-03-21T13:00:41.287Z,100906.84
2023-03-21T13:03:51.594Z,100895.41
2023-03-21T13:06:27.937Z,100891.16
2023-03-21T13:09:10.542Z,100888.22
2023-03-21T13:11:41.217Z,100887.22
2023-03-21T13:15:25.799Z,100885.63
2023-03-21T13:18:23.134Z,100883.69
2023-03-21T13:21:15.060Z,100884.19
2023-03-21T13:24:18.273Z,100875.50
2023-03-21T13:27:30.376Z,100866.97
2023-03-21T13:30:26.421Z,100863.91
2023-03-21T13:33:34.708Z,100860.00
2023-03-21T13:41:08.451Z,100864.16
2023-03-21T13:43:51.956Z,100862.84
2023-03-21T13:46:40.601Z,100856.19
2023-03-21T13:49:38.064Z,100861.06
2023-03-21T13:52:11.132Z,100855.94
2023-03-21T13:54:51.877Z,100858.91
2023-03-21T13:57:46.438Z,100850.53
2023-03-21T14:00:31.758Z,100848.41
2023-03-21T14:03:17.618Z,100849.44
2023-03-21T14:05:51.807Z,100847.44
2023-03-21T14:08:31.237Z,100852.69
2023-03-21T14:11:12.201Z,100844.84
2023-03-21T14:13:51.179Z,100846.31
2023-03-21T14:16:28.846Z,100844.38
2023-03-21T14:19:06.643Z,100839.28
2023-03-21T14:21:36.851Z,100836.13
2023-03-21T14:24:14.268Z,100829.13
2023-03-21T14:26:50.873Z,100828.97
2023-03-21T14:29:32.934Z,100830.72
2023-03-21T14:32:06.030Z,100824.91
2023-03-21T14:34:37.653Z,100813.50
2023-03-21T14:37:11.896Z,100816.72
2023-03-21T14:39:41.603Z,100818.25
2023-03-21T14:42:15.997Z,100808.91
2023-03-21T14:44:55.316Z,100809.59
2023-03-21T14:47:30.063Z,100809.97
2023-03-21T14:50:03.305Z,100800.91
2023-03-21T14:52:34.756Z,100800.06
2023-03-21T14:55:17.007Z,100795.28
2023-03-21T14:57:45.568Z,100789.94
2023-03-21T15:00:27.869Z,100789.59
2023-03-21T15:03:00.793Z,100788.31
2023-03-21T15:05:39.656Z,100788.13
2023-03-21T15:08:26.341Z,100780.34
2023-03-21T15:11:08.768Z,100776.91
2023-03-21T15:13:55.172Z,100776.09
2023-03-21T15:16:23.842Z,100780.59
2023-03-21T15:18:54.712Z,100774.34
2023-03-21T15:21:48.520Z,100769.16
2023-03-21T15:24:34.112Z,100771.25
2023-03-21T15:27:14.165Z,100761.47
2023-03-21T15:29:46.465Z,100766.09
2023-03-21T15:32:24.644Z,100763.81
2023-03-21T15:35:06.525Z,100758.75
2023-03-21T15:37:38.349Z,100765.84
2023-03-21T15:40:29.274Z,100759.66
2023-03-21T15:43:19.394Z,100765.44
2023-03-21T15:45:57.746Z,100763.84
2023-03-21T15:48:35.276Z,100747.47
2023-03-21T15:51:25.982Z,100764.00
2023-03-21T15:53:56.573Z,100756.34
2023-03-21T15:56:34.215Z,100747.41
2023-03-21T15:59:05.785Z,100742.34
2023-03-21T16:01:39.238Z,100737.78
2023-03-21T16:04:14.801Z,100739.38
2023-03-21T16:07:17.179Z,100735.47
2023-03-21T16:09:47.573Z,100727.31
2023-03-21T16:12:18.923Z,100729.78
2023-03-21T16:14:49.302Z,100724.84
2023-03-21T16:17:39.795Z,100725.31
2023-03-21T16:20:26.909Z,100723.75
2023-03-21T16:22:57.131Z,100726.19
2023-03-21T16:25:30.981Z,100729.84
2023-03-21T16:28:01.095Z,100724.75
2023-03-21T16:30:31.477Z,100736.84
2023-03-21T16:33:01.482Z,100738.31
2023-03-21T16:35:35.251Z,100741.66
2023-03-21T16:38:05.591Z,100739.19
2023-03-21T16:40:43.487Z,100744.25
2023-03-21T16:43:14.241Z,100750.59
2023-03-21T16:45:44.427Z,100742.44
2023-03-21T16:48:17.620Z,100742.00
2023-03-21T16:50:48.918Z,100748.34
2023-03-21T16:53:19.105Z,100735.78
2023-03-21T16:55:50.475Z,100736.09
2023-03-21T16:58:20.690Z,100735.16
2023-03-21T17:00:50.980Z,100726.00
2023-03-21T17:03:22.050Z,100730.09
2023-03-21T17:05:52.171Z,100725.88
2023-03-21T17:08:22.536Z,100721.59
2023-03-21T17:10:53.199Z,100721.59
2023-03-21T17:13:23.256Z,100718.34
2023-03-21T17:15:53.360Z,100715.09
2023-03-21T17:18:23.489Z,100712.47
2023-03-21T17:20:53.534Z,100709.19
2023-03-21T17:23:23.826Z,100711.19
2023-03-21T17:25:53.839Z,100723.09
2023-03-21T17:28:23.865Z,100715.53
2023-03-21T17:30:54.003Z,100712.63
2023-03-21T17:33:24.275Z,100708.88
2023-03-21T17:35:54.496Z,100706.72
2023-03-21T17:38:23.064Z,100694.31
2023-03-21T17:40:51.276Z,100705.59
2023-03-21T17:43:21.688Z,100702.97
2023-03-21T17:45:51.291Z,100699.22
2023-03-21T17:48:19.553Z,100697.59
2023-03-21T17:50:48.486Z,100696.59
2023-03-21T17:53:16.411Z,100701.47
2023-03-21T17:55:44.696Z,100691.19
2023-03-21T17:58:13.840Z,100700.19
2023-03-21T18:00:41.665Z,100695.44
2023-03-21T18:03:10.169Z,100698.69
2023-03-21T18:05:38.508Z,100692.47
2023-03-21T18:08:11.238Z,100690.03
2023-03-21T18:10:43.109Z,100687.06
2023-03-21T18:13:13.603Z,100701.28
2023-03-21T18:15:44.676Z,100690.69
2023-03-21T18:18:15.352Z,100691.16
2023-03-21T18:20:52.172Z,100696.50
2023-03-21T18:23:23.178Z,100692.44
2023-03-21T18:25:52.669Z,100688.69
2023-03-21T18:28:23.258Z,100687.22
2023-03-21T18:31:08.570Z,100686.25
2023-03-21T18:33:42.224Z,100684.16
2023-03-21T18:36:24.525Z,100692.31
2023-03-21T18:38:56.833Z,100689.09
2023-03-21T18:41:27.174Z,100687.97
2023-03-21T18:44:02.671Z,100687.59
2023-03-21T18:46:37.407Z,100693.81
2023-03-21T18:49:52.108Z,100690.88
2023-03-21T18:51:58.271Z,100682.88
2023-03-21T18:54:28.826Z,100692.03
2023-03-21T18:57:34.974Z,100684.50
2023-03-21T18:59:47.057Z,100690.03
2023-03-21T19:02:17.013Z,100695.72
2023-03-21T19:04:47.374Z,100689.69
2023-03-21T19:07:18.418Z,100694.63
2023-03-21T19:10:10.566Z,100684.34
2023-03-21T19:12:37.950Z,100689.38
2023-03-21T19:15:08.605Z,100691.84
2023-03-21T19:18:23.182Z,100694.75
2023-03-21T19:20:28.647Z,100694.72
2023-03-21T19:22:58.293Z,100688.84
2023-03-21T19:25:28.206Z,100690.63
2023-03-21T19:27:57.837Z,100688.03
2023-03-21T19:30:27.986Z,100695.00
2023-03-21T19:32:58.064Z,100688.16
2023-03-21T19:35:28.808Z,100692.88
2023-03-21T19:37:59.100Z,100693.69
2023-03-21T19:40:29.406Z,100691.91
2023-03-21T19:43:10.373Z,100690.91
2023-03-21T19:45:49.340Z,100692.38
2023-03-21T19:48:20.928Z,100686.63
2023-03-21T19:51:20.554Z,100693.34
2023-03-21T19:53:41.298Z,100687.28
2023-03-21T19:56:21.506Z,100684.19
2023-03-21T19:58:52.880Z,100688.72
2023-03-21T20:01:24.226Z,100685.47
2023-03-21T20:03:54.941Z,100676.84
2023-03-21T20:06:25.411Z,100676.69
2023-03-21T20:09:41.453Z,100682.88
2023-03-21T20:11:45.868Z,100679.13
2023-03-21T20:14:14.324Z,100680.41
2023-03-21T20:16:43.770Z,100690.53
2023-03-21T20:19:16.349Z,100691.16
2023-03-21T20:21:55.424Z,100697.34
2023-03-21T20:24:28.369Z,100697.97
2023-03-21T20:26:58.198Z,100696.16
2023-03-21T20:30:07.643Z,100696.91
2023-03-21T20:32:16.342Z,100693.66
2023-03-21T20:34:46.779Z,100698.38
2023-03-21T20:37:16.604Z,100694.81
2023-03-21T20:39:46.787Z,100689.56
2023-03-21T20:42:16.745Z,100690.69
2023-03-21T20:44:58.765Z,100691.84
2023-03-21T20:47:29.153Z,100690.06
2023-03-21T20:49:59.806Z,100684.03
2023-03-21T20:52:57.488Z,100686.31
2023-03-21T20:55:22.780Z,100681.41
2023-03-21T20:57:54.855Z,100680.41
2023-03-21T21:00:26.550Z,100686.56
2023-03-21T21:02:56.680Z,100689.84
2023-03-21T21:05:31.437Z,100680.22
2023-03-21T21:08:03.658Z,100671.03
2023-03-21T21:10:35.025Z,100674.75
2023-03-21T21:13:07.880Z,100681.06
2023-03-21T21:15:37.998Z,100669.84
2023-03-21T21:18:08.563Z,100669.34
2023-03-21T21:20:39.030Z,100657.91
2023-03-21T21:23:09.810Z,100666.41
2023-03-21T21:25:39.963Z,100666.38
2023-03-21T21:28:11.845Z,100667.00
2023-03-21T21:30:42.908Z,100663.91
2023-03-21T21:33:14.630Z,100663.41
2023-03-21T21:35:50.785Z,100668.75
2023-03-21T21:38:21.219Z,100667.78
2023-03-21T21:40:52.384Z,100670.34
2023-03-21T21:43:23.078Z,100667.91
2023-03-21T21:45:54.071Z,100658.84
2023-03-21T21:48:24.019Z,100666.31
2023-03-21T21:50:54.686Z,100660.91
2023-03-21T21:53:28.234Z,100656.50
2023-03-21T21:55:57.273Z,100653.25
2023-03-21T21:58:26.060Z,100659.91
2023-03-21T22:01:01.966Z,100654.19
2023-03-21T22:03:36.795Z,100647.72
2023-03-21T22:06:10.219Z,100656.00
2023-03-21T22:08:47.077Z,100649.66
2023-03-21T22:11:21.669Z,100647.91
2023-03-21T22:13:51.762Z,100652.78
2023-03-21T22:16:20.143Z,100650.75
2023-03-21T22:18:48.589Z,100648.56
2023-03-21T22:21:17.036Z,100647.06
2023-03-21T22:23:48.067Z,100656.31
2023-03-21T22:26:18.247Z,100664.56
2023-03-21T22:28:48.421Z,100666.97
2023-03-21T22:31:18.393Z,100662.56
2023-03-21T22:33:49.291Z,100660.59
2023-03-21T22:36:20.201Z,100657.94
2023-03-21T22:38:50.309Z,100659.91
2023-03-21T22:41:20.003Z,100661.03
2023-03-21T22:43:49.943Z,100650.03
2023-03-21T22:46:22.393Z,100648.41
2023-03-21T22:48:53.929Z,100657.94
2023-03-21T22:51:23.981Z,100650.78
2023-03-21T22:53:54.382Z,100650.28
2023-03-21T22:56:24.085Z,100649.13
2023-03-21T22:58:54.284Z,100654.47
2023-03-21T23:01:24.354Z,100649.63
2023-03-21T23:03:54.120Z,100654.16
2023-03-21T23:06:23.945Z,100642.91
2023-03-21T23:08:53.744Z,100644.09
2023-03-21T23:11:23.646Z,100645.88
2023-03-21T23:14:07.204Z,100632.81
2023-03-21T23:16:38.533Z,100642.97
2023-03-21T23:19:10.443Z,100630.28
2023-03-21T23:21:40.520Z,100629.34
2023-03-21T23:24:11.854Z,100643.81
2023-03-21T23:26:43.036Z,100636.94
2023-03-21T23:29:12.391Z,100638.22
2023-03-21T23:31:42.274Z,100642.72
2023-03-21T23:34:13.273Z,100638.63
2023-03-21T23:36:43.495Z,100633.44
2023-03-21T23:39:16.718Z,100622.97
2023-03-21T23:41:46.506Z,100620.03
2023-03-21T23:44:15.467Z,100611.09
2023-03-21T23:46:46.160Z,100622.38
2023-03-21T23:49:15.379Z,100619.47
2023-03-21T23:51:43.037Z,100619.66
2023-03-21T23:54:11.444Z,100615.22
2023-03-21T23:56:39.861Z,100622.53
2023-03-21T23:59:08.742Z,100624.88
